<?xml version="1.0" encoding="UTF-8" standalone="no" ?>
<gpx xmlns="http://www.topografix.com/GPX/1/1" xmlns:xsi="http://www.w3.org/2001/XMLSchema-instance" xsi:schemaLocation="http://www.topografix.com/GPX/1/1 http://www.topografix.com/GPX/1/1/gpx.xsd" version="1.1" creator="VisuGPX - https://www.visugpx.com">
  <metadata>
    <name>De Haan côte Belge</name>
    <desc><![CDATA[Très belle marche  de la fed flamande à De Haan le 12 mai 2018
annoncé 14km 500.
]]></desc>
  </metadata>
  <trk>
    <name><![CDATA[DE HAAN-12 13:35:29]]></name>
    <trkseg>
      <trkpt lat="51.26071" lon="3.00448">
        <ele>5.91</ele>
        <time>2018-05-12T08:23:24Z</time>
      </trkpt>
      <trkpt lat="51.26071" lon="3.00448">
        <ele>5.91</ele>
        <time>2018-05-12T08:23:25Z</time>
      </trkpt>
      <trkpt lat="51.26073" lon="3.00446">
        <ele>4.94</ele>
        <time>2018-05-12T08:23:47Z</time>
      </trkpt>
      <trkpt lat="51.26074" lon="3.00448">
        <ele>7.83</ele>
        <time>2018-05-12T08:23:51Z</time>
      </trkpt>
      <trkpt lat="51.26065" lon="3.00448">
        <ele>4.46</ele>
        <time>2018-05-12T08:24:04Z</time>
      </trkpt>
      <trkpt lat="51.26063" lon="3.00449">
        <ele>6.39</ele>
        <time>2018-05-12T08:24:06Z</time>
      </trkpt>
      <trkpt lat="51.26061" lon="3.00459">
        <ele>6.87</ele>
        <time>2018-05-12T08:24:23Z</time>
      </trkpt>
      <trkpt lat="51.26051" lon="3.00468">
        <ele>6.87</ele>
        <time>2018-05-12T08:24:37Z</time>
      </trkpt>
      <trkpt lat="51.26021" lon="3.00454">
        <ele>6.39</ele>
        <time>2018-05-12T08:25:04Z</time>
      </trkpt>
      <trkpt lat="51.26005" lon="3.00446">
        <ele>6.39</ele>
        <time>2018-05-12T08:25:19Z</time>
      </trkpt>
      <trkpt lat="51.25989" lon="3.00432">
        <ele>6.39</ele>
        <time>2018-05-12T08:25:36Z</time>
      </trkpt>
      <trkpt lat="51.25967" lon="3.00417">
        <ele>6.39</ele>
        <time>2018-05-12T08:25:56Z</time>
      </trkpt>
      <trkpt lat="51.25947" lon="3.00409">
        <ele>6.39</ele>
        <time>2018-05-12T08:26:15Z</time>
      </trkpt>
      <trkpt lat="51.25947" lon="3.0041">
        <ele>6.39</ele>
        <time>2018-05-12T08:26:16Z</time>
      </trkpt>
      <trkpt lat="51.25931" lon="3.00409">
        <ele>5.42</ele>
        <time>2018-05-12T08:26:34Z</time>
      </trkpt>
      <trkpt lat="51.25917" lon="3.00445">
        <ele>6.87</ele>
        <time>2018-05-12T08:26:58Z</time>
      </trkpt>
      <trkpt lat="51.25908" lon="3.00452">
        <ele>6.39</ele>
        <time>2018-05-12T08:27:15Z</time>
      </trkpt>
      <trkpt lat="51.25905" lon="3.00457">
        <ele>6.39</ele>
        <time>2018-05-12T08:27:35Z</time>
      </trkpt>
      <trkpt lat="51.25918" lon="3.00466">
        <ele>6.39</ele>
        <time>2018-05-12T08:27:48Z</time>
      </trkpt>
      <trkpt lat="51.25916" lon="3.0047">
        <ele>5.91</ele>
        <time>2018-05-12T08:28:13Z</time>
      </trkpt>
      <trkpt lat="51.25906" lon="3.00467">
        <ele>5.91</ele>
        <time>2018-05-12T08:28:39Z</time>
      </trkpt>
      <trkpt lat="51.25906" lon="3.00463">
        <ele>5.91</ele>
        <time>2018-05-12T08:29:08Z</time>
      </trkpt>
      <trkpt lat="51.2591" lon="3.00477">
        <ele>5.42</ele>
        <time>2018-05-12T08:29:32Z</time>
      </trkpt>
      <trkpt lat="51.25907" lon="3.00476">
        <ele>5.42</ele>
        <time>2018-05-12T08:29:58Z</time>
      </trkpt>
      <trkpt lat="51.25897" lon="3.00463">
        <ele>4.94</ele>
        <time>2018-05-12T08:30:19Z</time>
      </trkpt>
      <trkpt lat="51.259" lon="3.00445">
        <ele>4.94</ele>
        <time>2018-05-12T08:30:36Z</time>
      </trkpt>
      <trkpt lat="51.25913" lon="3.00456">
        <ele>4.46</ele>
        <time>2018-05-12T08:30:50Z</time>
      </trkpt>
      <trkpt lat="51.25924" lon="3.00447">
        <ele>4.46</ele>
        <time>2018-05-12T08:31:05Z</time>
      </trkpt>
      <trkpt lat="51.25929" lon="3.00435">
        <ele>4.46</ele>
        <time>2018-05-12T08:31:22Z</time>
      </trkpt>
      <trkpt lat="51.25928" lon="3.00437">
        <ele>4.46</ele>
        <time>2018-05-12T08:31:40Z</time>
      </trkpt>
      <trkpt lat="51.25934" lon="3.00446">
        <ele>4.46</ele>
        <time>2018-05-12T08:31:56Z</time>
      </trkpt>
      <trkpt lat="51.25934" lon="3.00445">
        <ele>3.98</ele>
        <time>2018-05-12T08:32:17Z</time>
      </trkpt>
      <trkpt lat="51.25933" lon="3.00445">
        <ele>3.98</ele>
        <time>2018-05-12T08:32:36Z</time>
      </trkpt>
      <trkpt lat="51.25926" lon="3.00446">
        <ele>3.5</ele>
        <time>2018-05-12T08:33:03Z</time>
      </trkpt>
      <trkpt lat="51.2593" lon="3.00437">
        <ele>3.5</ele>
        <time>2018-05-12T08:33:21Z</time>
      </trkpt>
      <trkpt lat="51.25933" lon="3.00419">
        <ele>3.5</ele>
        <time>2018-05-12T08:33:36Z</time>
      </trkpt>
      <trkpt lat="51.25931" lon="3.0039">
        <ele>3.02</ele>
        <time>2018-05-12T08:33:54Z</time>
      </trkpt>
      <trkpt lat="51.25921" lon="3.00382">
        <ele>3.02</ele>
        <time>2018-05-12T08:34:03Z</time>
      </trkpt>
      <trkpt lat="51.25911" lon="3.00374">
        <ele>3.02</ele>
        <time>2018-05-12T08:34:12Z</time>
      </trkpt>
      <trkpt lat="51.25888" lon="3.00351">
        <ele>3.02</ele>
        <time>2018-05-12T08:34:35Z</time>
      </trkpt>
      <trkpt lat="51.25863" lon="3.00322">
        <ele>3.02</ele>
        <time>2018-05-12T08:34:59Z</time>
      </trkpt>
      <trkpt lat="51.25839" lon="3.00295">
        <ele>3.02</ele>
        <time>2018-05-12T08:35:22Z</time>
      </trkpt>
      <trkpt lat="51.25813" lon="3.00264">
        <ele>3.02</ele>
        <time>2018-05-12T08:35:47Z</time>
      </trkpt>
      <trkpt lat="51.25792" lon="3.00242">
        <ele>3.02</ele>
        <time>2018-05-12T08:36:07Z</time>
      </trkpt>
      <trkpt lat="51.25766" lon="3.00218">
        <ele>3.02</ele>
        <time>2018-05-12T08:36:30Z</time>
      </trkpt>
      <trkpt lat="51.25741" lon="3.00202">
        <ele>3.02</ele>
        <time>2018-05-12T08:36:51Z</time>
      </trkpt>
      <trkpt lat="51.25717" lon="3.00186">
        <ele>3.02</ele>
        <time>2018-05-12T08:37:12Z</time>
      </trkpt>
      <trkpt lat="51.25684" lon="3.00173">
        <ele>3.02</ele>
        <time>2018-05-12T08:37:37Z</time>
      </trkpt>
      <trkpt lat="51.25658" lon="3.00164">
        <ele>1.58</ele>
        <time>2018-05-12T08:37:59Z</time>
      </trkpt>
      <trkpt lat="51.25636" lon="3.00161">
        <ele>1.58</ele>
        <time>2018-05-12T08:38:17Z</time>
      </trkpt>
      <trkpt lat="51.25608" lon="3.00155">
        <ele>1.58</ele>
        <time>2018-05-12T08:38:38Z</time>
      </trkpt>
      <trkpt lat="51.2558" lon="3.00149">
        <ele>1.1</ele>
        <time>2018-05-12T08:39:01Z</time>
      </trkpt>
      <trkpt lat="51.2555" lon="3.00145">
        <ele>1.1</ele>
        <time>2018-05-12T08:39:24Z</time>
      </trkpt>
      <trkpt lat="51.25521" lon="3.0014">
        <ele>1.1</ele>
        <time>2018-05-12T08:39:46Z</time>
      </trkpt>
      <trkpt lat="51.25488" lon="3.00136">
        <ele>1.1</ele>
        <time>2018-05-12T08:40:11Z</time>
      </trkpt>
      <trkpt lat="51.25484" lon="3.00134">
        <ele>1.1</ele>
        <time>2018-05-12T08:40:14Z</time>
      </trkpt>
      <trkpt lat="51.25464" lon="3.00114">
        <ele>1.1</ele>
        <time>2018-05-12T08:40:35Z</time>
      </trkpt>
      <trkpt lat="51.25446" lon="3.00109">
        <ele>2.06</ele>
        <time>2018-05-12T08:40:51Z</time>
      </trkpt>
      <trkpt lat="51.2543" lon="3.00122">
        <ele>2.06</ele>
        <time>2018-05-12T08:41:07Z</time>
      </trkpt>
      <trkpt lat="51.25422" lon="3.00123">
        <ele>2.06</ele>
        <time>2018-05-12T08:41:14Z</time>
      </trkpt>
      <trkpt lat="51.25394" lon="3.00139">
        <ele>2.06</ele>
        <time>2018-05-12T08:41:37Z</time>
      </trkpt>
      <trkpt lat="51.25376" lon="3.0016">
        <ele>2.06</ele>
        <time>2018-05-12T08:41:54Z</time>
      </trkpt>
      <trkpt lat="51.25362" lon="3.00202">
        <ele>2.54</ele>
        <time>2018-05-12T08:42:17Z</time>
      </trkpt>
      <trkpt lat="51.25346" lon="3.00239">
        <ele>2.54</ele>
        <time>2018-05-12T08:42:39Z</time>
      </trkpt>
      <trkpt lat="51.2533" lon="3.0027">
        <ele>3.02</ele>
        <time>2018-05-12T08:42:58Z</time>
      </trkpt>
      <trkpt lat="51.25309" lon="3.00289">
        <ele>3.02</ele>
        <time>2018-05-12T08:43:17Z</time>
      </trkpt>
      <trkpt lat="51.2528" lon="3.00295">
        <ele>3.02</ele>
        <time>2018-05-12T08:43:39Z</time>
      </trkpt>
      <trkpt lat="51.2525" lon="3.00298">
        <ele>3.02</ele>
        <time>2018-05-12T08:44:03Z</time>
      </trkpt>
      <trkpt lat="51.25243" lon="3.00299">
        <ele>2.54</ele>
        <time>2018-05-12T08:44:08Z</time>
      </trkpt>
      <trkpt lat="51.25227" lon="3.00313">
        <ele>2.54</ele>
        <time>2018-05-12T08:44:24Z</time>
      </trkpt>
      <trkpt lat="51.25209" lon="3.0031">
        <ele>2.54</ele>
        <time>2018-05-12T08:44:39Z</time>
      </trkpt>
      <trkpt lat="51.25181" lon="3.00326">
        <ele>1.58</ele>
        <time>2018-05-12T08:45:02Z</time>
      </trkpt>
      <trkpt lat="51.2516" lon="3.00335">
        <ele>1.58</ele>
        <time>2018-05-12T08:45:19Z</time>
      </trkpt>
      <trkpt lat="51.25133" lon="3.00343">
        <ele>1.58</ele>
        <time>2018-05-12T08:45:41Z</time>
      </trkpt>
      <trkpt lat="51.25105" lon="3.00355">
        <ele>1.1</ele>
        <time>2018-05-12T08:46:02Z</time>
      </trkpt>
      <trkpt lat="51.25077" lon="3.00364">
        <ele>0.62</ele>
        <time>2018-05-12T08:46:24Z</time>
      </trkpt>
      <trkpt lat="51.25069" lon="3.00391">
        <ele>0.62</ele>
        <time>2018-05-12T08:46:42Z</time>
      </trkpt>
      <trkpt lat="51.25069" lon="3.00395">
        <ele>0.62</ele>
        <time>2018-05-12T08:46:44Z</time>
      </trkpt>
      <trkpt lat="51.25065" lon="3.00433">
        <ele>0.62</ele>
        <time>2018-05-12T08:47:03Z</time>
      </trkpt>
      <trkpt lat="51.25062" lon="3.0047">
        <ele>0.62</ele>
        <time>2018-05-12T08:47:22Z</time>
      </trkpt>
      <trkpt lat="51.25062" lon="3.00516">
        <ele>0.14</ele>
        <time>2018-05-12T08:47:45Z</time>
      </trkpt>
      <trkpt lat="51.25065" lon="3.00558">
        <ele>0.14</ele>
        <time>2018-05-12T08:48:04Z</time>
      </trkpt>
      <trkpt lat="51.25068" lon="3.00595">
        <ele>0.14</ele>
        <time>2018-05-12T08:48:25Z</time>
      </trkpt>
      <trkpt lat="51.25069" lon="3.00629">
        <ele>-0.34</ele>
        <time>2018-05-12T08:48:43Z</time>
      </trkpt>
      <trkpt lat="51.25072" lon="3.00676">
        <ele>-0.34</ele>
        <time>2018-05-12T08:49:06Z</time>
      </trkpt>
      <trkpt lat="51.25067" lon="3.00711">
        <ele>1.1</ele>
        <time>2018-05-12T08:49:22Z</time>
      </trkpt>
      <trkpt lat="51.25062" lon="3.0075">
        <ele>-0.34</ele>
        <time>2018-05-12T08:49:42Z</time>
      </trkpt>
      <trkpt lat="51.25053" lon="3.00789">
        <ele>-0.34</ele>
        <time>2018-05-12T08:50:02Z</time>
      </trkpt>
      <trkpt lat="51.25044" lon="3.00829">
        <ele>-0.34</ele>
        <time>2018-05-12T08:50:24Z</time>
      </trkpt>
      <trkpt lat="51.25034" lon="3.00872">
        <ele>-0.82</ele>
        <time>2018-05-12T08:50:47Z</time>
      </trkpt>
      <trkpt lat="51.25022" lon="3.00921">
        <ele>-0.82</ele>
        <time>2018-05-12T08:51:12Z</time>
      </trkpt>
      <trkpt lat="51.25018" lon="3.00959">
        <ele>-0.82</ele>
        <time>2018-05-12T08:51:31Z</time>
      </trkpt>
      <trkpt lat="51.25025" lon="3.00982">
        <ele>-0.82</ele>
        <time>2018-05-12T08:51:45Z</time>
      </trkpt>
      <trkpt lat="51.25058" lon="3.00982">
        <ele>-0.82</ele>
        <time>2018-05-12T08:52:10Z</time>
      </trkpt>
      <trkpt lat="51.25084" lon="3.00982">
        <ele>-0.82</ele>
        <time>2018-05-12T08:52:30Z</time>
      </trkpt>
      <trkpt lat="51.25115" lon="3.0098">
        <ele>-0.82</ele>
        <time>2018-05-12T08:52:56Z</time>
      </trkpt>
      <trkpt lat="51.25143" lon="3.00981">
        <ele>-1.3</ele>
        <time>2018-05-12T08:53:19Z</time>
      </trkpt>
      <trkpt lat="51.25171" lon="3.00978">
        <ele>-1.3</ele>
        <time>2018-05-12T08:53:41Z</time>
      </trkpt>
      <trkpt lat="51.252" lon="3.00972">
        <ele>0.14</ele>
        <time>2018-05-12T08:54:04Z</time>
      </trkpt>
      <trkpt lat="51.25222" lon="3.00961">
        <ele>-0.34</ele>
        <time>2018-05-12T08:54:23Z</time>
      </trkpt>
      <trkpt lat="51.25247" lon="3.00954">
        <ele>-0.34</ele>
        <time>2018-05-12T08:54:44Z</time>
      </trkpt>
      <trkpt lat="51.25274" lon="3.0094">
        <ele>-0.34</ele>
        <time>2018-05-12T08:55:08Z</time>
      </trkpt>
      <trkpt lat="51.25294" lon="3.00935">
        <ele>-0.34</ele>
        <time>2018-05-12T08:55:26Z</time>
      </trkpt>
      <trkpt lat="51.25301" lon="3.00933">
        <ele>-0.34</ele>
        <time>2018-05-12T08:55:31Z</time>
      </trkpt>
      <trkpt lat="51.25335" lon="3.00923">
        <ele>0.14</ele>
        <time>2018-05-12T08:55:54Z</time>
      </trkpt>
      <trkpt lat="51.25361" lon="3.00917">
        <ele>0.14</ele>
        <time>2018-05-12T08:56:14Z</time>
      </trkpt>
      <trkpt lat="51.25389" lon="3.0091">
        <ele>0.14</ele>
        <time>2018-05-12T08:56:36Z</time>
      </trkpt>
      <trkpt lat="51.25419" lon="3.00905">
        <ele>-0.34</ele>
        <time>2018-05-12T08:57:00Z</time>
      </trkpt>
      <trkpt lat="51.25453" lon="3.00906">
        <ele>-0.34</ele>
        <time>2018-05-12T08:57:26Z</time>
      </trkpt>
      <trkpt lat="51.25476" lon="3.0091">
        <ele>-0.34</ele>
        <time>2018-05-12T08:57:45Z</time>
      </trkpt>
      <trkpt lat="51.25508" lon="3.00918">
        <ele>-0.34</ele>
        <time>2018-05-12T08:58:08Z</time>
      </trkpt>
      <trkpt lat="51.25526" lon="3.00923">
        <ele>-0.34</ele>
        <time>2018-05-12T08:58:22Z</time>
      </trkpt>
      <trkpt lat="51.25557" lon="3.00925">
        <ele>-0.34</ele>
        <time>2018-05-12T08:58:46Z</time>
      </trkpt>
      <trkpt lat="51.2556" lon="3.00925">
        <ele>-0.34</ele>
        <time>2018-05-12T08:58:48Z</time>
      </trkpt>
      <trkpt lat="51.25586" lon="3.00923">
        <ele>-0.34</ele>
        <time>2018-05-12T08:59:07Z</time>
      </trkpt>
      <trkpt lat="51.25617" lon="3.00919">
        <ele>-0.34</ele>
        <time>2018-05-12T08:59:30Z</time>
      </trkpt>
      <trkpt lat="51.25645" lon="3.00914">
        <ele>-1.79</ele>
        <time>2018-05-12T08:59:52Z</time>
      </trkpt>
      <trkpt lat="51.25673" lon="3.00901">
        <ele>-1.79</ele>
        <time>2018-05-12T09:00:16Z</time>
      </trkpt>
      <trkpt lat="51.25684" lon="3.00899">
        <ele>-0.34</ele>
        <time>2018-05-12T09:00:24Z</time>
      </trkpt>
      <trkpt lat="51.25711" lon="3.0089">
        <ele>-0.34</ele>
        <time>2018-05-12T09:00:46Z</time>
      </trkpt>
      <trkpt lat="51.25738" lon="3.00877">
        <ele>-0.34</ele>
        <time>2018-05-12T09:01:07Z</time>
      </trkpt>
      <trkpt lat="51.2576" lon="3.0087">
        <ele>-0.34</ele>
        <time>2018-05-12T09:01:25Z</time>
      </trkpt>
      <trkpt lat="51.25787" lon="3.00853">
        <ele>-0.34</ele>
        <time>2018-05-12T09:01:46Z</time>
      </trkpt>
      <trkpt lat="51.25814" lon="3.00843">
        <ele>-1.3</ele>
        <time>2018-05-12T09:02:07Z</time>
      </trkpt>
      <trkpt lat="51.25832" lon="3.00838">
        <ele>-1.3</ele>
        <time>2018-05-12T09:02:23Z</time>
      </trkpt>
      <trkpt lat="51.25857" lon="3.00833">
        <ele>-1.3</ele>
        <time>2018-05-12T09:02:42Z</time>
      </trkpt>
      <trkpt lat="51.25881" lon="3.00833">
        <ele>-1.3</ele>
        <time>2018-05-12T09:03:03Z</time>
      </trkpt>
      <trkpt lat="51.25902" lon="3.00835">
        <ele>-1.3</ele>
        <time>2018-05-12T09:03:20Z</time>
      </trkpt>
      <trkpt lat="51.25931" lon="3.00834">
        <ele>-1.79</ele>
        <time>2018-05-12T09:03:41Z</time>
      </trkpt>
      <trkpt lat="51.2594" lon="3.00834">
        <ele>-1.79</ele>
        <time>2018-05-12T09:03:49Z</time>
      </trkpt>
      <trkpt lat="51.25962" lon="3.00827">
        <ele>-1.79</ele>
        <time>2018-05-12T09:04:05Z</time>
      </trkpt>
      <trkpt lat="51.25992" lon="3.00831">
        <ele>-0.82</ele>
        <time>2018-05-12T09:04:28Z</time>
      </trkpt>
      <trkpt lat="51.2602" lon="3.00831">
        <ele>-0.34</ele>
        <time>2018-05-12T09:04:51Z</time>
      </trkpt>
      <trkpt lat="51.26022" lon="3.0083">
        <ele>-0.34</ele>
        <time>2018-05-12T09:04:52Z</time>
      </trkpt>
      <trkpt lat="51.26038" lon="3.00828">
        <ele>-0.34</ele>
        <time>2018-05-12T09:05:06Z</time>
      </trkpt>
      <trkpt lat="51.2604" lon="3.00827">
        <ele>-0.34</ele>
        <time>2018-05-12T09:05:07Z</time>
      </trkpt>
      <trkpt lat="51.26056" lon="3.00829">
        <ele>-0.34</ele>
        <time>2018-05-12T09:05:18Z</time>
      </trkpt>
      <trkpt lat="51.26078" lon="3.00829">
        <ele>-1.3</ele>
        <time>2018-05-12T09:05:35Z</time>
      </trkpt>
      <trkpt lat="51.26109" lon="3.00825">
        <ele>-1.3</ele>
        <time>2018-05-12T09:05:59Z</time>
      </trkpt>
      <trkpt lat="51.26144" lon="3.00823">
        <ele>-1.3</ele>
        <time>2018-05-12T09:06:27Z</time>
      </trkpt>
      <trkpt lat="51.26179" lon="3.00821">
        <ele>-1.79</ele>
        <time>2018-05-12T09:06:55Z</time>
      </trkpt>
      <trkpt lat="51.26209" lon="3.0082">
        <ele>-0.82</ele>
        <time>2018-05-12T09:07:20Z</time>
      </trkpt>
      <trkpt lat="51.26247" lon="3.00818">
        <ele>-0.82</ele>
        <time>2018-05-12T09:07:50Z</time>
      </trkpt>
      <trkpt lat="51.26278" lon="3.0082">
        <ele>-0.34</ele>
        <time>2018-05-12T09:08:14Z</time>
      </trkpt>
      <trkpt lat="51.26313" lon="3.00819">
        <ele>-0.34</ele>
        <time>2018-05-12T09:08:43Z</time>
      </trkpt>
      <trkpt lat="51.26335" lon="3.00818">
        <ele>-0.34</ele>
        <time>2018-05-12T09:09:02Z</time>
      </trkpt>
      <trkpt lat="51.26358" lon="3.00821">
        <ele>0.14</ele>
        <time>2018-05-12T09:09:20Z</time>
      </trkpt>
      <trkpt lat="51.26369" lon="3.0082">
        <ele>0.14</ele>
        <time>2018-05-12T09:09:36Z</time>
      </trkpt>
      <trkpt lat="51.26372" lon="3.00832">
        <ele>0.62</ele>
        <time>2018-05-12T09:09:52Z</time>
      </trkpt>
      <trkpt lat="51.26395" lon="3.00831">
        <ele>0.14</ele>
        <time>2018-05-12T09:10:12Z</time>
      </trkpt>
      <trkpt lat="51.26422" lon="3.00872">
        <ele>0.14</ele>
        <time>2018-05-12T09:10:35Z</time>
      </trkpt>
      <trkpt lat="51.26418" lon="3.00909">
        <ele>1.1</ele>
        <time>2018-05-12T09:10:54Z</time>
      </trkpt>
      <trkpt lat="51.26412" lon="3.00952">
        <ele>0.62</ele>
        <time>2018-05-12T09:11:18Z</time>
      </trkpt>
      <trkpt lat="51.2642" lon="3.00988">
        <ele>0.62</ele>
        <time>2018-05-12T09:11:40Z</time>
      </trkpt>
      <trkpt lat="51.26434" lon="3.01015">
        <ele>1.1</ele>
        <time>2018-05-12T09:12:00Z</time>
      </trkpt>
      <trkpt lat="51.26439" lon="3.01046">
        <ele>0.14</ele>
        <time>2018-05-12T09:12:19Z</time>
      </trkpt>
      <trkpt lat="51.26443" lon="3.01059">
        <ele>1.58</ele>
        <time>2018-05-12T09:12:27Z</time>
      </trkpt>
      <trkpt lat="51.26448" lon="3.0107">
        <ele>2.06</ele>
        <time>2018-05-12T09:12:36Z</time>
      </trkpt>
      <trkpt lat="51.26458" lon="3.0111">
        <ele>3.02</ele>
        <time>2018-05-12T09:12:55Z</time>
      </trkpt>
      <trkpt lat="51.26466" lon="3.01157">
        <ele>2.54</ele>
        <time>2018-05-12T09:13:17Z</time>
      </trkpt>
      <trkpt lat="51.26473" lon="3.01198">
        <ele>1.58</ele>
        <time>2018-05-12T09:13:37Z</time>
      </trkpt>
      <trkpt lat="51.26483" lon="3.01241">
        <ele>1.58</ele>
        <time>2018-05-12T09:13:57Z</time>
      </trkpt>
      <trkpt lat="51.26503" lon="3.01278">
        <ele>0.14</ele>
        <time>2018-05-12T09:14:19Z</time>
      </trkpt>
      <trkpt lat="51.26512" lon="3.01319">
        <ele>1.58</ele>
        <time>2018-05-12T09:14:39Z</time>
      </trkpt>
      <trkpt lat="51.26523" lon="3.01361">
        <ele>2.54</ele>
        <time>2018-05-12T09:15:01Z</time>
      </trkpt>
      <trkpt lat="51.26527" lon="3.01368">
        <ele>1.1</ele>
        <time>2018-05-12T09:15:05Z</time>
      </trkpt>
      <trkpt lat="51.26528" lon="3.0137">
        <ele>1.1</ele>
        <time>2018-05-12T09:15:06Z</time>
      </trkpt>
      <trkpt lat="51.26536" lon="3.01411">
        <ele>-0.34</ele>
        <time>2018-05-12T09:15:30Z</time>
      </trkpt>
      <trkpt lat="51.26558" lon="3.01453">
        <ele>-2.27</ele>
        <time>2018-05-12T09:15:55Z</time>
      </trkpt>
      <trkpt lat="51.26561" lon="3.01457">
        <ele>-1.3</ele>
        <time>2018-05-12T09:15:58Z</time>
      </trkpt>
      <trkpt lat="51.26578" lon="3.01494">
        <ele>-2.27</ele>
        <time>2018-05-12T09:16:20Z</time>
      </trkpt>
      <trkpt lat="51.26597" lon="3.01532">
        <ele>-1.3</ele>
        <time>2018-05-12T09:16:41Z</time>
      </trkpt>
      <trkpt lat="51.26605" lon="3.01549">
        <ele>-2.75</ele>
        <time>2018-05-12T09:16:54Z</time>
      </trkpt>
      <trkpt lat="51.2661" lon="3.01566">
        <ele>-1.3</ele>
        <time>2018-05-12T09:17:03Z</time>
      </trkpt>
      <trkpt lat="51.2662" lon="3.01589">
        <ele>0.14</ele>
        <time>2018-05-12T09:17:20Z</time>
      </trkpt>
      <trkpt lat="51.26624" lon="3.01603">
        <ele>-1.3</ele>
        <time>2018-05-12T09:17:27Z</time>
      </trkpt>
      <trkpt lat="51.26632" lon="3.01633">
        <ele>-1.79</ele>
        <time>2018-05-12T09:17:48Z</time>
      </trkpt>
      <trkpt lat="51.2663" lon="3.01649">
        <ele>-2.27</ele>
        <time>2018-05-12T09:18:01Z</time>
      </trkpt>
      <trkpt lat="51.26646" lon="3.01683">
        <ele>-2.27</ele>
        <time>2018-05-12T09:18:21Z</time>
      </trkpt>
      <trkpt lat="51.26667" lon="3.01722">
        <ele>-2.27</ele>
        <time>2018-05-12T09:18:44Z</time>
      </trkpt>
      <trkpt lat="51.26675" lon="3.01756">
        <ele>-2.27</ele>
        <time>2018-05-12T09:19:03Z</time>
      </trkpt>
      <trkpt lat="51.26657" lon="3.01791">
        <ele>-2.75</ele>
        <time>2018-05-12T09:19:23Z</time>
      </trkpt>
      <trkpt lat="51.26636" lon="3.01821">
        <ele>-3.71</ele>
        <time>2018-05-12T09:19:44Z</time>
      </trkpt>
      <trkpt lat="51.26611" lon="3.01831">
        <ele>-4.19</ele>
        <time>2018-05-12T09:20:01Z</time>
      </trkpt>
      <trkpt lat="51.26606" lon="3.01838">
        <ele>-4.19</ele>
        <time>2018-05-12T09:20:06Z</time>
      </trkpt>
      <trkpt lat="51.26583" lon="3.01876">
        <ele>-4.19</ele>
        <time>2018-05-12T09:20:33Z</time>
      </trkpt>
      <trkpt lat="51.26574" lon="3.01893">
        <ele>-4.19</ele>
        <time>2018-05-12T09:20:44Z</time>
      </trkpt>
      <trkpt lat="51.26557" lon="3.01924">
        <ele>-4.67</ele>
        <time>2018-05-12T09:21:04Z</time>
      </trkpt>
      <trkpt lat="51.26544" lon="3.01961">
        <ele>-4.67</ele>
        <time>2018-05-12T09:21:25Z</time>
      </trkpt>
      <trkpt lat="51.26539" lon="3.01981">
        <ele>-4.19</ele>
        <time>2018-05-12T09:21:34Z</time>
      </trkpt>
      <trkpt lat="51.26531" lon="3.02022">
        <ele>-4.67</ele>
        <time>2018-05-12T09:21:56Z</time>
      </trkpt>
      <trkpt lat="51.26523" lon="3.02059">
        <ele>-4.67</ele>
        <time>2018-05-12T09:22:16Z</time>
      </trkpt>
      <trkpt lat="51.26515" lon="3.02077">
        <ele>-4.67</ele>
        <time>2018-05-12T09:22:26Z</time>
      </trkpt>
      <trkpt lat="51.26482" lon="3.02068">
        <ele>-4.67</ele>
        <time>2018-05-12T09:22:51Z</time>
      </trkpt>
      <trkpt lat="51.26454" lon="3.0206">
        <ele>-4.67</ele>
        <time>2018-05-12T09:23:13Z</time>
      </trkpt>
      <trkpt lat="51.26429" lon="3.02056">
        <ele>-4.67</ele>
        <time>2018-05-12T09:23:32Z</time>
      </trkpt>
      <trkpt lat="51.26412" lon="3.02066">
        <ele>-5.15</ele>
        <time>2018-05-12T09:23:52Z</time>
      </trkpt>
      <trkpt lat="51.26411" lon="3.02092">
        <ele>-5.15</ele>
        <time>2018-05-12T09:24:06Z</time>
      </trkpt>
      <trkpt lat="51.26412" lon="3.02114">
        <ele>-5.15</ele>
        <time>2018-05-12T09:24:15Z</time>
      </trkpt>
      <trkpt lat="51.2641" lon="3.02154">
        <ele>-5.15</ele>
        <time>2018-05-12T09:24:34Z</time>
      </trkpt>
      <trkpt lat="51.26405" lon="3.02196">
        <ele>-5.15</ele>
        <time>2018-05-12T09:24:54Z</time>
      </trkpt>
      <trkpt lat="51.26402" lon="3.02236">
        <ele>-5.15</ele>
        <time>2018-05-12T09:25:13Z</time>
      </trkpt>
      <trkpt lat="51.26403" lon="3.02271">
        <ele>-4.67</ele>
        <time>2018-05-12T09:25:29Z</time>
      </trkpt>
      <trkpt lat="51.264" lon="3.02318">
        <ele>-4.67</ele>
        <time>2018-05-12T09:25:52Z</time>
      </trkpt>
      <trkpt lat="51.26397" lon="3.02364">
        <ele>-4.67</ele>
        <time>2018-05-12T09:26:13Z</time>
      </trkpt>
      <trkpt lat="51.26395" lon="3.02409">
        <ele>-4.67</ele>
        <time>2018-05-12T09:26:34Z</time>
      </trkpt>
      <trkpt lat="51.26392" lon="3.0245">
        <ele>-4.67</ele>
        <time>2018-05-12T09:26:53Z</time>
      </trkpt>
      <trkpt lat="51.26387" lon="3.02503">
        <ele>-4.67</ele>
        <time>2018-05-12T09:27:18Z</time>
      </trkpt>
      <trkpt lat="51.26385" lon="3.02543">
        <ele>-4.67</ele>
        <time>2018-05-12T09:27:37Z</time>
      </trkpt>
      <trkpt lat="51.26376" lon="3.02574">
        <ele>-4.67</ele>
        <time>2018-05-12T09:27:55Z</time>
      </trkpt>
      <trkpt lat="51.26364" lon="3.02582">
        <ele>-4.67</ele>
        <time>2018-05-12T09:28:04Z</time>
      </trkpt>
      <trkpt lat="51.2633" lon="3.02591">
        <ele>-4.67</ele>
        <time>2018-05-12T09:28:30Z</time>
      </trkpt>
      <trkpt lat="51.26298" lon="3.02602">
        <ele>-4.67</ele>
        <time>2018-05-12T09:28:54Z</time>
      </trkpt>
      <trkpt lat="51.26265" lon="3.02609">
        <ele>-5.15</ele>
        <time>2018-05-12T09:29:17Z</time>
      </trkpt>
      <trkpt lat="51.26256" lon="3.02614">
        <ele>-5.15</ele>
        <time>2018-05-12T09:29:26Z</time>
      </trkpt>
      <trkpt lat="51.26255" lon="3.02645">
        <ele>-5.15</ele>
        <time>2018-05-12T09:29:43Z</time>
      </trkpt>
      <trkpt lat="51.26264" lon="3.02678">
        <ele>-5.63</ele>
        <time>2018-05-12T09:30:01Z</time>
      </trkpt>
      <trkpt lat="51.2628" lon="3.02715">
        <ele>-5.63</ele>
        <time>2018-05-12T09:30:24Z</time>
      </trkpt>
      <trkpt lat="51.26293" lon="3.02754">
        <ele>-5.63</ele>
        <time>2018-05-12T09:30:45Z</time>
      </trkpt>
      <trkpt lat="51.263" lon="3.02768">
        <ele>-4.67</ele>
        <time>2018-05-12T09:30:52Z</time>
      </trkpt>
      <trkpt lat="51.2631" lon="3.02771">
        <ele>-4.67</ele>
        <time>2018-05-12T09:31:07Z</time>
      </trkpt>
      <trkpt lat="51.26331" lon="3.02764">
        <ele>-4.67</ele>
        <time>2018-05-12T09:31:27Z</time>
      </trkpt>
      <trkpt lat="51.26357" lon="3.02761">
        <ele>-5.15</ele>
        <time>2018-05-12T09:31:48Z</time>
      </trkpt>
      <trkpt lat="51.26361" lon="3.02759">
        <ele>-6.11</ele>
        <time>2018-05-12T09:31:53Z</time>
      </trkpt>
      <trkpt lat="51.26365" lon="3.02757">
        <ele>-6.11</ele>
        <time>2018-05-12T09:31:56Z</time>
      </trkpt>
      <trkpt lat="51.26389" lon="3.0274">
        <ele>-5.15</ele>
        <time>2018-05-12T09:32:17Z</time>
      </trkpt>
      <trkpt lat="51.26428" lon="3.0273">
        <ele>-5.15</ele>
        <time>2018-05-12T09:32:43Z</time>
      </trkpt>
      <trkpt lat="51.26461" lon="3.02721">
        <ele>-5.15</ele>
        <time>2018-05-12T09:33:09Z</time>
      </trkpt>
      <trkpt lat="51.2649" lon="3.02712">
        <ele>-5.15</ele>
        <time>2018-05-12T09:33:34Z</time>
      </trkpt>
      <trkpt lat="51.26527" lon="3.02702">
        <ele>-5.15</ele>
        <time>2018-05-12T09:33:59Z</time>
      </trkpt>
      <trkpt lat="51.26551" lon="3.02694">
        <ele>-5.63</ele>
        <time>2018-05-12T09:34:20Z</time>
      </trkpt>
      <trkpt lat="51.26583" lon="3.02686">
        <ele>-4.67</ele>
        <time>2018-05-12T09:34:45Z</time>
      </trkpt>
      <trkpt lat="51.26615" lon="3.02675">
        <ele>-4.67</ele>
        <time>2018-05-12T09:35:09Z</time>
      </trkpt>
      <trkpt lat="51.26644" lon="3.02668">
        <ele>-4.67</ele>
        <time>2018-05-12T09:35:33Z</time>
      </trkpt>
      <trkpt lat="51.26675" lon="3.02659">
        <ele>-4.67</ele>
        <time>2018-05-12T09:35:55Z</time>
      </trkpt>
      <trkpt lat="51.26702" lon="3.02656">
        <ele>-4.67</ele>
        <time>2018-05-12T09:36:16Z</time>
      </trkpt>
      <trkpt lat="51.26711" lon="3.02665">
        <ele>-4.67</ele>
        <time>2018-05-12T09:36:26Z</time>
      </trkpt>
      <trkpt lat="51.26715" lon="3.02676">
        <ele>-4.67</ele>
        <time>2018-05-12T09:36:32Z</time>
      </trkpt>
      <trkpt lat="51.26735" lon="3.02714">
        <ele>-4.19</ele>
        <time>2018-05-12T09:36:53Z</time>
      </trkpt>
      <trkpt lat="51.2674" lon="3.02755">
        <ele>-4.19</ele>
        <time>2018-05-12T09:37:15Z</time>
      </trkpt>
      <trkpt lat="51.26748" lon="3.02796">
        <ele>-4.19</ele>
        <time>2018-05-12T09:37:36Z</time>
      </trkpt>
      <trkpt lat="51.26756" lon="3.02839">
        <ele>-4.19</ele>
        <time>2018-05-12T09:37:57Z</time>
      </trkpt>
      <trkpt lat="51.26765" lon="3.02895">
        <ele>-4.19</ele>
        <time>2018-05-12T09:38:22Z</time>
      </trkpt>
      <trkpt lat="51.26772" lon="3.02935">
        <ele>-4.19</ele>
        <time>2018-05-12T09:38:44Z</time>
      </trkpt>
      <trkpt lat="51.26782" lon="3.02981">
        <ele>-4.19</ele>
        <time>2018-05-12T09:39:05Z</time>
      </trkpt>
      <trkpt lat="51.26785" lon="3.03021">
        <ele>-4.67</ele>
        <time>2018-05-12T09:39:24Z</time>
      </trkpt>
      <trkpt lat="51.26787" lon="3.03062">
        <ele>-4.67</ele>
        <time>2018-05-12T09:39:43Z</time>
      </trkpt>
      <trkpt lat="51.26799" lon="3.03091">
        <ele>-4.67</ele>
        <time>2018-05-12T09:40:02Z</time>
      </trkpt>
      <trkpt lat="51.26802" lon="3.03089">
        <ele>-4.67</ele>
        <time>2018-05-12T09:40:05Z</time>
      </trkpt>
      <trkpt lat="51.26807" lon="3.03085">
        <ele>-4.67</ele>
        <time>2018-05-12T09:40:08Z</time>
      </trkpt>
      <trkpt lat="51.26836" lon="3.0307">
        <ele>-4.19</ele>
        <time>2018-05-12T09:40:30Z</time>
      </trkpt>
      <trkpt lat="51.26863" lon="3.03054">
        <ele>-3.71</ele>
        <time>2018-05-12T09:40:52Z</time>
      </trkpt>
      <trkpt lat="51.26887" lon="3.03041">
        <ele>-3.71</ele>
        <time>2018-05-12T09:41:12Z</time>
      </trkpt>
      <trkpt lat="51.26903" lon="3.03036">
        <ele>-4.67</ele>
        <time>2018-05-12T09:41:25Z</time>
      </trkpt>
      <trkpt lat="51.26907" lon="3.03037">
        <ele>-4.67</ele>
        <time>2018-05-12T09:41:29Z</time>
      </trkpt>
      <trkpt lat="51.26916" lon="3.03039">
        <ele>-4.67</ele>
        <time>2018-05-12T09:41:37Z</time>
      </trkpt>
      <trkpt lat="51.26943" lon="3.03023">
        <ele>-3.23</ele>
        <time>2018-05-12T09:42:00Z</time>
      </trkpt>
      <trkpt lat="51.26963" lon="3.03014">
        <ele>-3.23</ele>
        <time>2018-05-12T09:42:16Z</time>
      </trkpt>
      <trkpt lat="51.26973" lon="3.02996">
        <ele>-3.23</ele>
        <time>2018-05-12T09:42:30Z</time>
      </trkpt>
      <trkpt lat="51.26968" lon="3.02963">
        <ele>-2.75</ele>
        <time>2018-05-12T09:42:47Z</time>
      </trkpt>
      <trkpt lat="51.26959" lon="3.02926">
        <ele>-2.75</ele>
        <time>2018-05-12T09:43:07Z</time>
      </trkpt>
      <trkpt lat="51.26956" lon="3.02903">
        <ele>-2.75</ele>
        <time>2018-05-12T09:43:18Z</time>
      </trkpt>
      <trkpt lat="51.26955" lon="3.02883">
        <ele>-2.75</ele>
        <time>2018-05-12T09:43:27Z</time>
      </trkpt>
      <trkpt lat="51.26972" lon="3.02865">
        <ele>-2.75</ele>
        <time>2018-05-12T09:43:47Z</time>
      </trkpt>
      <trkpt lat="51.26989" lon="3.02858">
        <ele>-3.23</ele>
        <time>2018-05-12T09:44:03Z</time>
      </trkpt>
      <trkpt lat="51.27011" lon="3.0285">
        <ele>-3.23</ele>
        <time>2018-05-12T09:44:20Z</time>
      </trkpt>
      <trkpt lat="51.27019" lon="3.02847">
        <ele>-3.23</ele>
        <time>2018-05-12T09:44:26Z</time>
      </trkpt>
      <trkpt lat="51.27043" lon="3.02837">
        <ele>-2.75</ele>
        <time>2018-05-12T09:44:43Z</time>
      </trkpt>
      <trkpt lat="51.2707" lon="3.0282">
        <ele>-1.79</ele>
        <time>2018-05-12T09:45:04Z</time>
      </trkpt>
      <trkpt lat="51.27075" lon="3.02826">
        <ele>-1.79</ele>
        <time>2018-05-12T09:45:10Z</time>
      </trkpt>
      <trkpt lat="51.27081" lon="3.0285">
        <ele>-1.3</ele>
        <time>2018-05-12T09:45:24Z</time>
      </trkpt>
      <trkpt lat="51.27112" lon="3.02878">
        <ele>-1.3</ele>
        <time>2018-05-12T09:45:47Z</time>
      </trkpt>
      <trkpt lat="51.27136" lon="3.0291">
        <ele>-1.3</ele>
        <time>2018-05-12T09:46:08Z</time>
      </trkpt>
      <trkpt lat="51.27153" lon="3.02953">
        <ele>-1.3</ele>
        <time>2018-05-12T09:46:29Z</time>
      </trkpt>
      <trkpt lat="51.27156" lon="3.02995">
        <ele>-1.3</ele>
        <time>2018-05-12T09:46:49Z</time>
      </trkpt>
      <trkpt lat="51.27169" lon="3.03027">
        <ele>-1.3</ele>
        <time>2018-05-12T09:47:08Z</time>
      </trkpt>
      <trkpt lat="51.2718" lon="3.03075">
        <ele>-1.3</ele>
        <time>2018-05-12T09:47:32Z</time>
      </trkpt>
      <trkpt lat="51.27182" lon="3.03103">
        <ele>-0.82</ele>
        <time>2018-05-12T09:47:50Z</time>
      </trkpt>
      <trkpt lat="51.27183" lon="3.03114">
        <ele>-0.82</ele>
        <time>2018-05-12T09:47:56Z</time>
      </trkpt>
      <trkpt lat="51.27194" lon="3.03159">
        <ele>-0.82</ele>
        <time>2018-05-12T09:48:18Z</time>
      </trkpt>
      <trkpt lat="51.27203" lon="3.03194">
        <ele>-0.82</ele>
        <time>2018-05-12T09:48:36Z</time>
      </trkpt>
      <trkpt lat="51.27209" lon="3.03229">
        <ele>-0.34</ele>
        <time>2018-05-12T09:48:55Z</time>
      </trkpt>
      <trkpt lat="51.27218" lon="3.03262">
        <ele>-1.3</ele>
        <time>2018-05-12T09:49:13Z</time>
      </trkpt>
      <trkpt lat="51.27225" lon="3.03303">
        <ele>-1.79</ele>
        <time>2018-05-12T09:49:32Z</time>
      </trkpt>
      <trkpt lat="51.27232" lon="3.03339">
        <ele>-1.79</ele>
        <time>2018-05-12T09:49:52Z</time>
      </trkpt>
      <trkpt lat="51.27236" lon="3.03363">
        <ele>-2.27</ele>
        <time>2018-05-12T09:50:08Z</time>
      </trkpt>
      <trkpt lat="51.2723" lon="3.03368">
        <ele>-2.27</ele>
        <time>2018-05-12T09:50:23Z</time>
      </trkpt>
      <trkpt lat="51.27211" lon="3.03388">
        <ele>-1.79</ele>
        <time>2018-05-12T09:50:40Z</time>
      </trkpt>
      <trkpt lat="51.2718" lon="3.03416">
        <ele>-1.79</ele>
        <time>2018-05-12T09:50:58Z</time>
      </trkpt>
      <trkpt lat="51.27159" lon="3.03424">
        <ele>-2.27</ele>
        <time>2018-05-12T09:51:16Z</time>
      </trkpt>
      <trkpt lat="51.27159" lon="3.03424">
        <ele>-2.27</ele>
        <time>2018-05-12T09:51:30Z</time>
      </trkpt>
      <trkpt lat="51.27147" lon="3.0343">
        <ele>-2.27</ele>
        <time>2018-05-12T09:51:49Z</time>
      </trkpt>
      <trkpt lat="51.27138" lon="3.03448">
        <ele>-2.27</ele>
        <time>2018-05-12T09:52:09Z</time>
      </trkpt>
      <trkpt lat="51.27147" lon="3.03477">
        <ele>-2.75</ele>
        <time>2018-05-12T09:52:29Z</time>
      </trkpt>
      <trkpt lat="51.27143" lon="3.0351">
        <ele>-2.75</ele>
        <time>2018-05-12T09:52:45Z</time>
      </trkpt>
      <trkpt lat="51.27135" lon="3.03551">
        <ele>-3.23</ele>
        <time>2018-05-12T09:53:04Z</time>
      </trkpt>
      <trkpt lat="51.27139" lon="3.0359">
        <ele>-3.71</ele>
        <time>2018-05-12T09:53:26Z</time>
      </trkpt>
      <trkpt lat="51.27137" lon="3.03609">
        <ele>-3.71</ele>
        <time>2018-05-12T09:53:36Z</time>
      </trkpt>
      <trkpt lat="51.2713" lon="3.03632">
        <ele>-3.71</ele>
        <time>2018-05-12T09:53:54Z</time>
      </trkpt>
      <trkpt lat="51.27132" lon="3.03639">
        <ele>-3.71</ele>
        <time>2018-05-12T09:53:58Z</time>
      </trkpt>
      <trkpt lat="51.27143" lon="3.03666">
        <ele>-3.71</ele>
        <time>2018-05-12T09:54:16Z</time>
      </trkpt>
      <trkpt lat="51.27149" lon="3.03678">
        <ele>-3.71</ele>
        <time>2018-05-12T09:54:37Z</time>
      </trkpt>
      <trkpt lat="51.27152" lon="3.03668">
        <ele>-5.15</ele>
        <time>2018-05-12T09:54:57Z</time>
      </trkpt>
      <trkpt lat="51.27152" lon="3.03668">
        <ele>-5.15</ele>
        <time>2018-05-12T09:54:58Z</time>
      </trkpt>
      <trkpt lat="51.27153" lon="3.03668">
        <ele>-1.79</ele>
        <time>2018-05-12T09:55:00Z</time>
      </trkpt>
      <trkpt lat="51.27169" lon="3.0364">
        <ele>-2.75</ele>
        <time>2018-05-12T09:57:06Z</time>
      </trkpt>
      <trkpt lat="51.27168" lon="3.03643">
        <ele>-2.75</ele>
        <time>2018-05-12T09:57:07Z</time>
      </trkpt>
      <trkpt lat="51.27157" lon="3.03677">
        <ele>-2.75</ele>
        <time>2018-05-12T09:57:26Z</time>
      </trkpt>
      <trkpt lat="51.27153" lon="3.03681">
        <ele>-2.27</ele>
        <time>2018-05-12T09:57:40Z</time>
      </trkpt>
      <trkpt lat="51.2717" lon="3.03608">
        <ele>-2.27</ele>
        <time>2018-05-12T10:00:11Z</time>
      </trkpt>
      <trkpt lat="51.27169" lon="3.03629">
        <ele>-2.27</ele>
        <time>2018-05-12T10:00:34Z</time>
      </trkpt>
      <trkpt lat="51.27175" lon="3.03609">
        <ele>-2.27</ele>
        <time>2018-05-12T10:01:02Z</time>
      </trkpt>
      <trkpt lat="51.27175" lon="3.03605">
        <ele>-2.27</ele>
        <time>2018-05-12T10:01:27Z</time>
      </trkpt>
      <trkpt lat="51.27171" lon="3.03626">
        <ele>-2.27</ele>
        <time>2018-05-12T10:01:53Z</time>
      </trkpt>
      <trkpt lat="51.27167" lon="3.03631">
        <ele>-2.27</ele>
        <time>2018-05-12T10:02:21Z</time>
      </trkpt>
      <trkpt lat="51.27156" lon="3.03584">
        <ele>-1.79</ele>
        <time>2018-05-12T10:02:45Z</time>
      </trkpt>
      <trkpt lat="51.27159" lon="3.03609">
        <ele>-1.79</ele>
        <time>2018-05-12T10:03:01Z</time>
      </trkpt>
      <trkpt lat="51.27161" lon="3.03621">
        <ele>-1.79</ele>
        <time>2018-05-12T10:03:25Z</time>
      </trkpt>
      <trkpt lat="51.2717" lon="3.03663">
        <ele>-1.79</ele>
        <time>2018-05-12T10:03:51Z</time>
      </trkpt>
      <trkpt lat="51.27163" lon="3.0369">
        <ele>-1.3</ele>
        <time>2018-05-12T10:04:12Z</time>
      </trkpt>
      <trkpt lat="51.27161" lon="3.03696">
        <ele>-1.3</ele>
        <time>2018-05-12T10:04:25Z</time>
      </trkpt>
      <trkpt lat="51.27183" lon="3.03683">
        <ele>-1.3</ele>
        <time>2018-05-12T10:04:41Z</time>
      </trkpt>
      <trkpt lat="51.27186" lon="3.03679">
        <ele>-0.82</ele>
        <time>2018-05-12T10:04:55Z</time>
      </trkpt>
      <trkpt lat="51.27188" lon="3.03668">
        <ele>-0.82</ele>
        <time>2018-05-12T10:05:25Z</time>
      </trkpt>
      <trkpt lat="51.27187" lon="3.03671">
        <ele>-0.82</ele>
        <time>2018-05-12T10:05:46Z</time>
      </trkpt>
      <trkpt lat="51.27185" lon="3.03674">
        <ele>-2.27</ele>
        <time>2018-05-12T10:06:05Z</time>
      </trkpt>
      <trkpt lat="51.27183" lon="3.03676">
        <ele>-0.34</ele>
        <time>2018-05-12T10:06:08Z</time>
      </trkpt>
      <trkpt lat="51.27173" lon="3.03681">
        <ele>-1.79</ele>
        <time>2018-05-12T10:06:19Z</time>
      </trkpt>
      <trkpt lat="51.27149" lon="3.03679">
        <ele>-1.79</ele>
        <time>2018-05-12T10:06:39Z</time>
      </trkpt>
      <trkpt lat="51.2714" lon="3.03662">
        <ele>-1.79</ele>
        <time>2018-05-12T10:06:58Z</time>
      </trkpt>
      <trkpt lat="51.27133" lon="3.03674">
        <ele>-1.79</ele>
        <time>2018-05-12T10:07:18Z</time>
      </trkpt>
      <trkpt lat="51.27116" lon="3.03707">
        <ele>-1.79</ele>
        <time>2018-05-12T10:07:35Z</time>
      </trkpt>
      <trkpt lat="51.27119" lon="3.03746">
        <ele>-1.79</ele>
        <time>2018-05-12T10:07:53Z</time>
      </trkpt>
      <trkpt lat="51.27124" lon="3.03769">
        <ele>-1.79</ele>
        <time>2018-05-12T10:08:13Z</time>
      </trkpt>
      <trkpt lat="51.27136" lon="3.03769">
        <ele>-2.27</ele>
        <time>2018-05-12T10:08:32Z</time>
      </trkpt>
      <trkpt lat="51.27155" lon="3.03745">
        <ele>-2.27</ele>
        <time>2018-05-12T10:08:48Z</time>
      </trkpt>
      <trkpt lat="51.27175" lon="3.03713">
        <ele>-2.27</ele>
        <time>2018-05-12T10:09:10Z</time>
      </trkpt>
      <trkpt lat="51.27192" lon="3.03707">
        <ele>-2.75</ele>
        <time>2018-05-12T10:09:27Z</time>
      </trkpt>
      <trkpt lat="51.27194" lon="3.03703">
        <ele>-2.75</ele>
        <time>2018-05-12T10:09:29Z</time>
      </trkpt>
      <trkpt lat="51.2721" lon="3.03686">
        <ele>-3.23</ele>
        <time>2018-05-12T10:09:43Z</time>
      </trkpt>
      <trkpt lat="51.27211" lon="3.03684">
        <ele>-3.23</ele>
        <time>2018-05-12T10:09:45Z</time>
      </trkpt>
      <trkpt lat="51.27236" lon="3.03651">
        <ele>-1.79</ele>
        <time>2018-05-12T10:10:05Z</time>
      </trkpt>
      <trkpt lat="51.27266" lon="3.03618">
        <ele>-1.3</ele>
        <time>2018-05-12T10:10:27Z</time>
      </trkpt>
      <trkpt lat="51.27283" lon="3.03604">
        <ele>-0.34</ele>
        <time>2018-05-12T10:10:44Z</time>
      </trkpt>
      <trkpt lat="51.27278" lon="3.03574">
        <ele>-0.82</ele>
        <time>2018-05-12T10:11:01Z</time>
      </trkpt>
      <trkpt lat="51.27271" lon="3.03548">
        <ele>-0.82</ele>
        <time>2018-05-12T10:11:18Z</time>
      </trkpt>
      <trkpt lat="51.27273" lon="3.03528">
        <ele>-0.34</ele>
        <time>2018-05-12T10:11:31Z</time>
      </trkpt>
      <trkpt lat="51.27274" lon="3.03484">
        <ele>-0.34</ele>
        <time>2018-05-12T10:11:47Z</time>
      </trkpt>
      <trkpt lat="51.27263" lon="3.03455">
        <ele>-0.82</ele>
        <time>2018-05-12T10:12:05Z</time>
      </trkpt>
      <trkpt lat="51.27251" lon="3.03424">
        <ele>-0.82</ele>
        <time>2018-05-12T10:12:23Z</time>
      </trkpt>
      <trkpt lat="51.27248" lon="3.03418">
        <ele>-2.27</ele>
        <time>2018-05-12T10:12:27Z</time>
      </trkpt>
      <trkpt lat="51.27244" lon="3.03407">
        <ele>-2.27</ele>
        <time>2018-05-12T10:12:35Z</time>
      </trkpt>
      <trkpt lat="51.27254" lon="3.03385">
        <ele>-2.27</ele>
        <time>2018-05-12T10:12:54Z</time>
      </trkpt>
      <trkpt lat="51.27265" lon="3.03363">
        <ele>-2.27</ele>
        <time>2018-05-12T10:13:08Z</time>
      </trkpt>
      <trkpt lat="51.27266" lon="3.03361">
        <ele>-2.27</ele>
        <time>2018-05-12T10:13:10Z</time>
      </trkpt>
      <trkpt lat="51.27284" lon="3.03327">
        <ele>-2.27</ele>
        <time>2018-05-12T10:13:31Z</time>
      </trkpt>
      <trkpt lat="51.27291" lon="3.03318">
        <ele>-2.27</ele>
        <time>2018-05-12T10:13:39Z</time>
      </trkpt>
      <trkpt lat="51.27299" lon="3.03302">
        <ele>-2.75</ele>
        <time>2018-05-12T10:13:50Z</time>
      </trkpt>
      <trkpt lat="51.27302" lon="3.033">
        <ele>-2.75</ele>
        <time>2018-05-12T10:13:53Z</time>
      </trkpt>
      <trkpt lat="51.2731" lon="3.03295">
        <ele>-2.75</ele>
        <time>2018-05-12T10:14:00Z</time>
      </trkpt>
      <trkpt lat="51.27331" lon="3.03298">
        <ele>-2.75</ele>
        <time>2018-05-12T10:14:18Z</time>
      </trkpt>
      <trkpt lat="51.27353" lon="3.0331">
        <ele>-2.75</ele>
        <time>2018-05-12T10:14:38Z</time>
      </trkpt>
      <trkpt lat="51.27368" lon="3.0332">
        <ele>-3.23</ele>
        <time>2018-05-12T10:14:53Z</time>
      </trkpt>
      <trkpt lat="51.27384" lon="3.03323">
        <ele>-3.23</ele>
        <time>2018-05-12T10:15:08Z</time>
      </trkpt>
      <trkpt lat="51.2741" lon="3.03308">
        <ele>-2.75</ele>
        <time>2018-05-12T10:15:28Z</time>
      </trkpt>
      <trkpt lat="51.27418" lon="3.03304">
        <ele>-2.75</ele>
        <time>2018-05-12T10:15:34Z</time>
      </trkpt>
      <trkpt lat="51.27421" lon="3.03303">
        <ele>-2.75</ele>
        <time>2018-05-12T10:15:36Z</time>
      </trkpt>
      <trkpt lat="51.27446" lon="3.03298">
        <ele>-2.75</ele>
        <time>2018-05-12T10:15:54Z</time>
      </trkpt>
      <trkpt lat="51.27465" lon="3.03301">
        <ele>-3.23</ele>
        <time>2018-05-12T10:16:13Z</time>
      </trkpt>
      <trkpt lat="51.27488" lon="3.03316">
        <ele>-3.23</ele>
        <time>2018-05-12T10:16:36Z</time>
      </trkpt>
      <trkpt lat="51.27514" lon="3.03328">
        <ele>-3.23</ele>
        <time>2018-05-12T10:16:54Z</time>
      </trkpt>
      <trkpt lat="51.2755" lon="3.03315">
        <ele>-3.23</ele>
        <time>2018-05-12T10:17:13Z</time>
      </trkpt>
      <trkpt lat="51.27566" lon="3.03302">
        <ele>-2.27</ele>
        <time>2018-05-12T10:17:30Z</time>
      </trkpt>
      <trkpt lat="51.27577" lon="3.03334">
        <ele>-2.27</ele>
        <time>2018-05-12T10:17:47Z</time>
      </trkpt>
      <trkpt lat="51.27583" lon="3.03352">
        <ele>-3.23</ele>
        <time>2018-05-12T10:17:57Z</time>
      </trkpt>
      <trkpt lat="51.27611" lon="3.03373">
        <ele>-4.19</ele>
        <time>2018-05-12T10:18:18Z</time>
      </trkpt>
      <trkpt lat="51.27626" lon="3.03409">
        <ele>-3.71</ele>
        <time>2018-05-12T10:18:39Z</time>
      </trkpt>
      <trkpt lat="51.27638" lon="3.03441">
        <ele>-3.71</ele>
        <time>2018-05-12T10:18:57Z</time>
      </trkpt>
      <trkpt lat="51.2764" lon="3.03446">
        <ele>-2.27</ele>
        <time>2018-05-12T10:19:00Z</time>
      </trkpt>
      <trkpt lat="51.27657" lon="3.03484">
        <ele>-2.27</ele>
        <time>2018-05-12T10:19:23Z</time>
      </trkpt>
      <trkpt lat="51.27666" lon="3.03516">
        <ele>-2.27</ele>
        <time>2018-05-12T10:19:42Z</time>
      </trkpt>
      <trkpt lat="51.27673" lon="3.03549">
        <ele>-2.27</ele>
        <time>2018-05-12T10:20:02Z</time>
      </trkpt>
      <trkpt lat="51.27687" lon="3.03581">
        <ele>-2.27</ele>
        <time>2018-05-12T10:20:23Z</time>
      </trkpt>
      <trkpt lat="51.27698" lon="3.03606">
        <ele>-3.71</ele>
        <time>2018-05-12T10:20:39Z</time>
      </trkpt>
      <trkpt lat="51.27717" lon="3.03626">
        <ele>-2.27</ele>
        <time>2018-05-12T10:20:54Z</time>
      </trkpt>
      <trkpt lat="51.2774" lon="3.03651">
        <ele>-2.27</ele>
        <time>2018-05-12T10:21:16Z</time>
      </trkpt>
      <trkpt lat="51.27755" lon="3.03684">
        <ele>-1.79</ele>
        <time>2018-05-12T10:21:38Z</time>
      </trkpt>
      <trkpt lat="51.27779" lon="3.03698">
        <ele>-1.3</ele>
        <time>2018-05-12T10:21:59Z</time>
      </trkpt>
      <trkpt lat="51.27796" lon="3.03708">
        <ele>-0.82</ele>
        <time>2018-05-12T10:22:18Z</time>
      </trkpt>
      <trkpt lat="51.27816" lon="3.03719">
        <ele>-2.27</ele>
        <time>2018-05-12T10:22:37Z</time>
      </trkpt>
      <trkpt lat="51.2783" lon="3.03756">
        <ele>-2.75</ele>
        <time>2018-05-12T10:22:57Z</time>
      </trkpt>
      <trkpt lat="51.27847" lon="3.038">
        <ele>-3.71</ele>
        <time>2018-05-12T10:23:21Z</time>
      </trkpt>
      <trkpt lat="51.27863" lon="3.03845">
        <ele>-4.67</ele>
        <time>2018-05-12T10:23:45Z</time>
      </trkpt>
      <trkpt lat="51.27873" lon="3.03888">
        <ele>-4.19</ele>
        <time>2018-05-12T10:24:06Z</time>
      </trkpt>
      <trkpt lat="51.27886" lon="3.03923">
        <ele>-4.19</ele>
        <time>2018-05-12T10:24:26Z</time>
      </trkpt>
      <trkpt lat="51.27904" lon="3.03932">
        <ele>-4.19</ele>
        <time>2018-05-12T10:24:46Z</time>
      </trkpt>
      <trkpt lat="51.2792" lon="3.03918">
        <ele>-4.19</ele>
        <time>2018-05-12T10:25:04Z</time>
      </trkpt>
      <trkpt lat="51.27931" lon="3.03909">
        <ele>-4.19</ele>
        <time>2018-05-12T10:25:12Z</time>
      </trkpt>
      <trkpt lat="51.27959" lon="3.03886">
        <ele>-4.19</ele>
        <time>2018-05-12T10:25:34Z</time>
      </trkpt>
      <trkpt lat="51.2798" lon="3.03869">
        <ele>-4.19</ele>
        <time>2018-05-12T10:25:54Z</time>
      </trkpt>
      <trkpt lat="51.27983" lon="3.03867">
        <ele>-4.19</ele>
        <time>2018-05-12T10:25:57Z</time>
      </trkpt>
      <trkpt lat="51.28005" lon="3.03853">
        <ele>-4.19</ele>
        <time>2018-05-12T10:26:17Z</time>
      </trkpt>
      <trkpt lat="51.28016" lon="3.03842">
        <ele>-4.19</ele>
        <time>2018-05-12T10:26:27Z</time>
      </trkpt>
      <trkpt lat="51.28041" lon="3.03824">
        <ele>-2.75</ele>
        <time>2018-05-12T10:26:47Z</time>
      </trkpt>
      <trkpt lat="51.28063" lon="3.03807">
        <ele>-1.79</ele>
        <time>2018-05-12T10:27:05Z</time>
      </trkpt>
      <trkpt lat="51.2808" lon="3.03782">
        <ele>-0.34</ele>
        <time>2018-05-12T10:27:26Z</time>
      </trkpt>
      <trkpt lat="51.28074" lon="3.03764">
        <ele>-0.34</ele>
        <time>2018-05-12T10:27:38Z</time>
      </trkpt>
      <trkpt lat="51.28062" lon="3.03728">
        <ele>-0.34</ele>
        <time>2018-05-12T10:27:58Z</time>
      </trkpt>
      <trkpt lat="51.28052" lon="3.03702">
        <ele>-0.34</ele>
        <time>2018-05-12T10:28:14Z</time>
      </trkpt>
      <trkpt lat="51.28042" lon="3.03671">
        <ele>-0.34</ele>
        <time>2018-05-12T10:28:31Z</time>
      </trkpt>
      <trkpt lat="51.28039" lon="3.03657">
        <ele>-0.34</ele>
        <time>2018-05-12T10:28:39Z</time>
      </trkpt>
      <trkpt lat="51.28039" lon="3.03653">
        <ele>-0.34</ele>
        <time>2018-05-12T10:28:41Z</time>
      </trkpt>
      <trkpt lat="51.28039" lon="3.03646">
        <ele>-0.34</ele>
        <time>2018-05-12T10:28:44Z</time>
      </trkpt>
      <trkpt lat="51.28041" lon="3.0364">
        <ele>-0.34</ele>
        <time>2018-05-12T10:28:48Z</time>
      </trkpt>
      <trkpt lat="51.28054" lon="3.03613">
        <ele>0.14</ele>
        <time>2018-05-12T10:29:06Z</time>
      </trkpt>
      <trkpt lat="51.28065" lon="3.0359">
        <ele>0.62</ele>
        <time>2018-05-12T10:29:27Z</time>
      </trkpt>
      <trkpt lat="51.28067" lon="3.0358">
        <ele>-0.82</ele>
        <time>2018-05-12T10:29:36Z</time>
      </trkpt>
      <trkpt lat="51.28061" lon="3.03557">
        <ele>0.62</ele>
        <time>2018-05-12T10:29:53Z</time>
      </trkpt>
      <trkpt lat="51.28064" lon="3.03559">
        <ele>-0.82</ele>
        <time>2018-05-12T10:30:14Z</time>
      </trkpt>
      <trkpt lat="51.28064" lon="3.03559">
        <ele>-0.82</ele>
        <time>2018-05-12T10:30:15Z</time>
      </trkpt>
      <trkpt lat="51.28063" lon="3.03561">
        <ele>-0.82</ele>
        <time>2018-05-12T10:30:39Z</time>
      </trkpt>
      <trkpt lat="51.28061" lon="3.03555">
        <ele>-0.82</ele>
        <time>2018-05-12T10:30:54Z</time>
      </trkpt>
      <trkpt lat="51.28051" lon="3.03537">
        <ele>-0.34</ele>
        <time>2018-05-12T10:31:11Z</time>
      </trkpt>
      <trkpt lat="51.28055" lon="3.03529">
        <ele>-0.34</ele>
        <time>2018-05-12T10:31:34Z</time>
      </trkpt>
      <trkpt lat="51.28052" lon="3.03523">
        <ele>-0.34</ele>
        <time>2018-05-12T10:31:53Z</time>
      </trkpt>
      <trkpt lat="51.28049" lon="3.03518">
        <ele>-0.34</ele>
        <time>2018-05-12T10:31:57Z</time>
      </trkpt>
      <trkpt lat="51.28039" lon="3.03503">
        <ele>-0.34</ele>
        <time>2018-05-12T10:32:07Z</time>
      </trkpt>
      <trkpt lat="51.28023" lon="3.03464">
        <ele>1.1</ele>
        <time>2018-05-12T10:32:30Z</time>
      </trkpt>
      <trkpt lat="51.28006" lon="3.03432">
        <ele>1.1</ele>
        <time>2018-05-12T10:32:51Z</time>
      </trkpt>
      <trkpt lat="51.27985" lon="3.03392">
        <ele>1.1</ele>
        <time>2018-05-12T10:33:14Z</time>
      </trkpt>
      <trkpt lat="51.27968" lon="3.03355">
        <ele>1.58</ele>
        <time>2018-05-12T10:33:37Z</time>
      </trkpt>
      <trkpt lat="51.27956" lon="3.03324">
        <ele>2.06</ele>
        <time>2018-05-12T10:33:56Z</time>
      </trkpt>
      <trkpt lat="51.27938" lon="3.03288">
        <ele>1.1</ele>
        <time>2018-05-12T10:34:21Z</time>
      </trkpt>
      <trkpt lat="51.27921" lon="3.03261">
        <ele>1.1</ele>
        <time>2018-05-12T10:34:39Z</time>
      </trkpt>
      <trkpt lat="51.27903" lon="3.03227">
        <ele>1.1</ele>
        <time>2018-05-12T10:34:59Z</time>
      </trkpt>
      <trkpt lat="51.2789" lon="3.03194">
        <ele>1.1</ele>
        <time>2018-05-12T10:35:18Z</time>
      </trkpt>
      <trkpt lat="51.27877" lon="3.03161">
        <ele>1.1</ele>
        <time>2018-05-12T10:35:37Z</time>
      </trkpt>
      <trkpt lat="51.27863" lon="3.03125">
        <ele>1.1</ele>
        <time>2018-05-12T10:35:59Z</time>
      </trkpt>
      <trkpt lat="51.27845" lon="3.03091">
        <ele>1.58</ele>
        <time>2018-05-12T10:36:21Z</time>
      </trkpt>
      <trkpt lat="51.27828" lon="3.0305">
        <ele>1.58</ele>
        <time>2018-05-12T10:36:45Z</time>
      </trkpt>
      <trkpt lat="51.27819" lon="3.03022">
        <ele>3.02</ele>
        <time>2018-05-12T10:37:03Z</time>
      </trkpt>
      <trkpt lat="51.27808" lon="3.02984">
        <ele>3.02</ele>
        <time>2018-05-12T10:37:24Z</time>
      </trkpt>
      <trkpt lat="51.27798" lon="3.02956">
        <ele>3.02</ele>
        <time>2018-05-12T10:37:42Z</time>
      </trkpt>
      <trkpt lat="51.27785" lon="3.02933">
        <ele>3.02</ele>
        <time>2018-05-12T10:37:59Z</time>
      </trkpt>
      <trkpt lat="51.27773" lon="3.02915">
        <ele>3.02</ele>
        <time>2018-05-12T10:38:20Z</time>
      </trkpt>
      <trkpt lat="51.27769" lon="3.02913">
        <ele>3.5</ele>
        <time>2018-05-12T10:38:43Z</time>
      </trkpt>
      <trkpt lat="51.2777" lon="3.02913">
        <ele>3.02</ele>
        <time>2018-05-12T10:39:14Z</time>
      </trkpt>
      <trkpt lat="51.27773" lon="3.02908">
        <ele>3.5</ele>
        <time>2018-05-12T10:39:40Z</time>
      </trkpt>
      <trkpt lat="51.27774" lon="3.02897">
        <ele>3.5</ele>
        <time>2018-05-12T10:40:00Z</time>
      </trkpt>
      <trkpt lat="51.27775" lon="3.02896">
        <ele>2.54</ele>
        <time>2018-05-12T10:40:17Z</time>
      </trkpt>
      <trkpt lat="51.27779" lon="3.02896">
        <ele>2.54</ele>
        <time>2018-05-12T10:40:43Z</time>
      </trkpt>
      <trkpt lat="51.27778" lon="3.02901">
        <ele>2.54</ele>
        <time>2018-05-12T10:41:14Z</time>
      </trkpt>
      <trkpt lat="51.2778" lon="3.02899">
        <ele>2.54</ele>
        <time>2018-05-12T10:41:41Z</time>
      </trkpt>
      <trkpt lat="51.27779" lon="3.02894">
        <ele>3.02</ele>
        <time>2018-05-12T10:42:16Z</time>
      </trkpt>
      <trkpt lat="51.27777" lon="3.02895">
        <ele>3.02</ele>
        <time>2018-05-12T10:42:52Z</time>
      </trkpt>
      <trkpt lat="51.27777" lon="3.02902">
        <ele>3.5</ele>
        <time>2018-05-12T10:43:29Z</time>
      </trkpt>
      <trkpt lat="51.27779" lon="3.02905">
        <ele>3.5</ele>
        <time>2018-05-12T10:43:58Z</time>
      </trkpt>
      <trkpt lat="51.27778" lon="3.029">
        <ele>3.98</ele>
        <time>2018-05-12T10:44:23Z</time>
      </trkpt>
      <trkpt lat="51.2778" lon="3.02902">
        <ele>3.98</ele>
        <time>2018-05-12T10:44:54Z</time>
      </trkpt>
      <trkpt lat="51.27783" lon="3.02904">
        <ele>4.46</ele>
        <time>2018-05-12T10:45:26Z</time>
      </trkpt>
      <trkpt lat="51.27777" lon="3.02909">
        <ele>4.46</ele>
        <time>2018-05-12T10:45:57Z</time>
      </trkpt>
      <trkpt lat="51.27777" lon="3.02902">
        <ele>4.94</ele>
        <time>2018-05-12T10:46:27Z</time>
      </trkpt>
      <trkpt lat="51.27779" lon="3.02899">
        <ele>4.94</ele>
        <time>2018-05-12T10:46:51Z</time>
      </trkpt>
      <trkpt lat="51.2778" lon="3.02899">
        <ele>4.94</ele>
        <time>2018-05-12T10:47:10Z</time>
      </trkpt>
      <trkpt lat="51.27768" lon="3.0288">
        <ele>4.94</ele>
        <time>2018-05-12T10:47:28Z</time>
      </trkpt>
      <trkpt lat="51.27755" lon="3.02854">
        <ele>5.91</ele>
        <time>2018-05-12T10:47:47Z</time>
      </trkpt>
      <trkpt lat="51.27752" lon="3.02847">
        <ele>4.94</ele>
        <time>2018-05-12T10:47:52Z</time>
      </trkpt>
      <trkpt lat="51.27734" lon="3.02818">
        <ele>4.94</ele>
        <time>2018-05-12T10:48:14Z</time>
      </trkpt>
      <trkpt lat="51.27719" lon="3.02795">
        <ele>4.94</ele>
        <time>2018-05-12T10:48:32Z</time>
      </trkpt>
      <trkpt lat="51.27705" lon="3.02776">
        <ele>4.94</ele>
        <time>2018-05-12T10:48:47Z</time>
      </trkpt>
      <trkpt lat="51.27691" lon="3.02741">
        <ele>4.46</ele>
        <time>2018-05-12T10:49:08Z</time>
      </trkpt>
      <trkpt lat="51.27688" lon="3.02719">
        <ele>5.91</ele>
        <time>2018-05-12T10:49:18Z</time>
      </trkpt>
      <trkpt lat="51.27674" lon="3.02684">
        <ele>5.91</ele>
        <time>2018-05-12T10:49:40Z</time>
      </trkpt>
      <trkpt lat="51.27656" lon="3.02643">
        <ele>5.42</ele>
        <time>2018-05-12T10:50:04Z</time>
      </trkpt>
      <trkpt lat="51.27642" lon="3.02607">
        <ele>5.42</ele>
        <time>2018-05-12T10:50:25Z</time>
      </trkpt>
      <trkpt lat="51.27626" lon="3.02577">
        <ele>7.83</ele>
        <time>2018-05-12T10:50:46Z</time>
      </trkpt>
      <trkpt lat="51.27609" lon="3.02555">
        <ele>10.71</ele>
        <time>2018-05-12T10:51:03Z</time>
      </trkpt>
      <trkpt lat="51.27593" lon="3.02539">
        <ele>12.63</ele>
        <time>2018-05-12T10:51:21Z</time>
      </trkpt>
      <trkpt lat="51.27578" lon="3.02517">
        <ele>12.63</ele>
        <time>2018-05-12T10:51:39Z</time>
      </trkpt>
      <trkpt lat="51.27569" lon="3.02477">
        <ele>14.56</ele>
        <time>2018-05-12T10:51:59Z</time>
      </trkpt>
      <trkpt lat="51.27565" lon="3.0247">
        <ele>14.56</ele>
        <time>2018-05-12T10:52:04Z</time>
      </trkpt>
      <trkpt lat="51.27545" lon="3.02434">
        <ele>13.6</ele>
        <time>2018-05-12T10:52:29Z</time>
      </trkpt>
      <trkpt lat="51.27524" lon="3.0243">
        <ele>11.67</ele>
        <time>2018-05-12T10:52:51Z</time>
      </trkpt>
      <trkpt lat="51.27509" lon="3.02465">
        <ele>9.27</ele>
        <time>2018-05-12T10:53:14Z</time>
      </trkpt>
      <trkpt lat="51.27512" lon="3.02496">
        <ele>8.31</ele>
        <time>2018-05-12T10:53:32Z</time>
      </trkpt>
      <trkpt lat="51.27522" lon="3.02534">
        <ele>5.42</ele>
        <time>2018-05-12T10:53:57Z</time>
      </trkpt>
      <trkpt lat="51.27534" lon="3.02558">
        <ele>3.5</ele>
        <time>2018-05-12T10:54:16Z</time>
      </trkpt>
      <trkpt lat="51.27537" lon="3.02569">
        <ele>3.5</ele>
        <time>2018-05-12T10:54:23Z</time>
      </trkpt>
      <trkpt lat="51.27543" lon="3.02588">
        <ele>3.02</ele>
        <time>2018-05-12T10:54:33Z</time>
      </trkpt>
      <trkpt lat="51.27521" lon="3.02613">
        <ele>3.02</ele>
        <time>2018-05-12T10:54:56Z</time>
      </trkpt>
      <trkpt lat="51.27514" lon="3.02617">
        <ele>2.54</ele>
        <time>2018-05-12T10:55:02Z</time>
      </trkpt>
      <trkpt lat="51.27494" lon="3.02614">
        <ele>5.91</ele>
        <time>2018-05-12T10:55:18Z</time>
      </trkpt>
      <trkpt lat="51.27492" lon="3.02615">
        <ele>5.91</ele>
        <time>2018-05-12T10:55:20Z</time>
      </trkpt>
      <trkpt lat="51.27472" lon="3.0263">
        <ele>9.27</ele>
        <time>2018-05-12T10:55:40Z</time>
      </trkpt>
      <trkpt lat="51.27462" lon="3.02652">
        <ele>7.35</ele>
        <time>2018-05-12T10:55:56Z</time>
      </trkpt>
      <trkpt lat="51.27441" lon="3.02678">
        <ele>6.39</ele>
        <time>2018-05-12T10:56:18Z</time>
      </trkpt>
      <trkpt lat="51.27433" lon="3.02688">
        <ele>5.91</ele>
        <time>2018-05-12T10:56:25Z</time>
      </trkpt>
      <trkpt lat="51.27411" lon="3.02714">
        <ele>5.91</ele>
        <time>2018-05-12T10:56:46Z</time>
      </trkpt>
      <trkpt lat="51.27392" lon="3.02722">
        <ele>3.98</ele>
        <time>2018-05-12T10:57:08Z</time>
      </trkpt>
      <trkpt lat="51.27363" lon="3.0274">
        <ele>1.1</ele>
        <time>2018-05-12T10:57:31Z</time>
      </trkpt>
      <trkpt lat="51.27355" lon="3.02743">
        <ele>0.62</ele>
        <time>2018-05-12T10:57:37Z</time>
      </trkpt>
      <trkpt lat="51.27349" lon="3.02735">
        <ele>0.62</ele>
        <time>2018-05-12T10:57:43Z</time>
      </trkpt>
      <trkpt lat="51.27333" lon="3.02698">
        <ele>2.54</ele>
        <time>2018-05-12T10:58:06Z</time>
      </trkpt>
      <trkpt lat="51.27323" lon="3.02672">
        <ele>3.5</ele>
        <time>2018-05-12T10:58:25Z</time>
      </trkpt>
      <trkpt lat="51.27309" lon="3.02654">
        <ele>3.5</ele>
        <time>2018-05-12T10:58:41Z</time>
      </trkpt>
      <trkpt lat="51.27302" lon="3.02649">
        <ele>1.58</ele>
        <time>2018-05-12T10:58:53Z</time>
      </trkpt>
      <trkpt lat="51.27296" lon="3.02651">
        <ele>1.58</ele>
        <time>2018-05-12T10:58:58Z</time>
      </trkpt>
      <trkpt lat="51.27293" lon="3.02653">
        <ele>1.1</ele>
        <time>2018-05-12T10:59:01Z</time>
      </trkpt>
      <trkpt lat="51.27273" lon="3.02673">
        <ele>0.14</ele>
        <time>2018-05-12T10:59:20Z</time>
      </trkpt>
      <trkpt lat="51.27255" lon="3.02695">
        <ele>-0.34</ele>
        <time>2018-05-12T10:59:39Z</time>
      </trkpt>
      <trkpt lat="51.27239" lon="3.02717">
        <ele>-1.79</ele>
        <time>2018-05-12T11:00:03Z</time>
      </trkpt>
      <trkpt lat="51.27239" lon="3.02758">
        <ele>-0.34</ele>
        <time>2018-05-12T11:00:22Z</time>
      </trkpt>
      <trkpt lat="51.27246" lon="3.02806">
        <ele>-0.34</ele>
        <time>2018-05-12T11:00:45Z</time>
      </trkpt>
      <trkpt lat="51.2725" lon="3.02854">
        <ele>-0.34</ele>
        <time>2018-05-12T11:01:05Z</time>
      </trkpt>
      <trkpt lat="51.27246" lon="3.029">
        <ele>-0.34</ele>
        <time>2018-05-12T11:01:28Z</time>
      </trkpt>
      <trkpt lat="51.27232" lon="3.02913">
        <ele>-0.82</ele>
        <time>2018-05-12T11:01:44Z</time>
      </trkpt>
      <trkpt lat="51.27214" lon="3.02885">
        <ele>-1.79</ele>
        <time>2018-05-12T11:02:03Z</time>
      </trkpt>
      <trkpt lat="51.27209" lon="3.0284">
        <ele>-2.27</ele>
        <time>2018-05-12T11:02:23Z</time>
      </trkpt>
      <trkpt lat="51.27207" lon="3.02814">
        <ele>-2.27</ele>
        <time>2018-05-12T11:02:36Z</time>
      </trkpt>
      <trkpt lat="51.27199" lon="3.02786">
        <ele>-2.75</ele>
        <time>2018-05-12T11:02:57Z</time>
      </trkpt>
      <trkpt lat="51.27182" lon="3.02783">
        <ele>-2.75</ele>
        <time>2018-05-12T11:03:15Z</time>
      </trkpt>
      <trkpt lat="51.27163" lon="3.02761">
        <ele>-2.75</ele>
        <time>2018-05-12T11:03:37Z</time>
      </trkpt>
      <trkpt lat="51.27144" lon="3.02743">
        <ele>-2.75</ele>
        <time>2018-05-12T11:03:57Z</time>
      </trkpt>
      <trkpt lat="51.27135" lon="3.02721">
        <ele>-1.79</ele>
        <time>2018-05-12T11:04:06Z</time>
      </trkpt>
      <trkpt lat="51.27129" lon="3.02674">
        <ele>-1.79</ele>
        <time>2018-05-12T11:04:28Z</time>
      </trkpt>
      <trkpt lat="51.27116" lon="3.02651">
        <ele>-0.34</ele>
        <time>2018-05-12T11:04:45Z</time>
      </trkpt>
      <trkpt lat="51.27094" lon="3.02623">
        <ele>1.58</ele>
        <time>2018-05-12T11:05:02Z</time>
      </trkpt>
      <trkpt lat="51.2708" lon="3.02604">
        <ele>2.54</ele>
        <time>2018-05-12T11:05:22Z</time>
      </trkpt>
      <trkpt lat="51.27056" lon="3.02594">
        <ele>3.02</ele>
        <time>2018-05-12T11:05:45Z</time>
      </trkpt>
      <trkpt lat="51.27054" lon="3.02594">
        <ele>1.58</ele>
        <time>2018-05-12T11:05:47Z</time>
      </trkpt>
      <trkpt lat="51.27026" lon="3.02589">
        <ele>-0.82</ele>
        <time>2018-05-12T11:06:11Z</time>
      </trkpt>
      <trkpt lat="51.27015" lon="3.02588">
        <ele>0.62</ele>
        <time>2018-05-12T11:06:22Z</time>
      </trkpt>
      <trkpt lat="51.26993" lon="3.02589">
        <ele>1.1</ele>
        <time>2018-05-12T11:06:41Z</time>
      </trkpt>
      <trkpt lat="51.2698" lon="3.02584">
        <ele>-0.34</ele>
        <time>2018-05-12T11:06:52Z</time>
      </trkpt>
      <trkpt lat="51.26959" lon="3.02547">
        <ele>-1.3</ele>
        <time>2018-05-12T11:07:16Z</time>
      </trkpt>
      <trkpt lat="51.26935" lon="3.0251">
        <ele>-2.75</ele>
        <time>2018-05-12T11:07:41Z</time>
      </trkpt>
      <trkpt lat="51.26917" lon="3.02477">
        <ele>-2.75</ele>
        <time>2018-05-12T11:08:03Z</time>
      </trkpt>
      <trkpt lat="51.26897" lon="3.02438">
        <ele>-3.23</ele>
        <time>2018-05-12T11:08:27Z</time>
      </trkpt>
      <trkpt lat="51.26896" lon="3.0241">
        <ele>-1.79</ele>
        <time>2018-05-12T11:08:39Z</time>
      </trkpt>
      <trkpt lat="51.26898" lon="3.02372">
        <ele>-2.27</ele>
        <time>2018-05-12T11:08:59Z</time>
      </trkpt>
      <trkpt lat="51.26884" lon="3.02336">
        <ele>-3.71</ele>
        <time>2018-05-12T11:09:20Z</time>
      </trkpt>
      <trkpt lat="51.26873" lon="3.02305">
        <ele>-4.19</ele>
        <time>2018-05-12T11:09:43Z</time>
      </trkpt>
      <trkpt lat="51.26865" lon="3.02273">
        <ele>-4.67</ele>
        <time>2018-05-12T11:10:00Z</time>
      </trkpt>
      <trkpt lat="51.2687" lon="3.02223">
        <ele>-4.67</ele>
        <time>2018-05-12T11:10:24Z</time>
      </trkpt>
      <trkpt lat="51.26884" lon="3.0218">
        <ele>-4.67</ele>
        <time>2018-05-12T11:10:48Z</time>
      </trkpt>
      <trkpt lat="51.26882" lon="3.02147">
        <ele>-5.63</ele>
        <time>2018-05-12T11:11:08Z</time>
      </trkpt>
      <trkpt lat="51.26875" lon="3.0211">
        <ele>-5.63</ele>
        <time>2018-05-12T11:11:27Z</time>
      </trkpt>
      <trkpt lat="51.26878" lon="3.02065">
        <ele>-5.63</ele>
        <time>2018-05-12T11:11:48Z</time>
      </trkpt>
      <trkpt lat="51.26879" lon="3.0203">
        <ele>-5.63</ele>
        <time>2018-05-12T11:12:07Z</time>
      </trkpt>
      <trkpt lat="51.26879" lon="3.01989">
        <ele>-6.11</ele>
        <time>2018-05-12T11:12:28Z</time>
      </trkpt>
      <trkpt lat="51.26875" lon="3.0195">
        <ele>-6.11</ele>
        <time>2018-05-12T11:12:49Z</time>
      </trkpt>
      <trkpt lat="51.26864" lon="3.01914">
        <ele>-6.11</ele>
        <time>2018-05-12T11:13:10Z</time>
      </trkpt>
      <trkpt lat="51.26845" lon="3.01882">
        <ele>-6.11</ele>
        <time>2018-05-12T11:13:31Z</time>
      </trkpt>
      <trkpt lat="51.26834" lon="3.01849">
        <ele>-6.11</ele>
        <time>2018-05-12T11:13:51Z</time>
      </trkpt>
      <trkpt lat="51.26818" lon="3.01812">
        <ele>-6.11</ele>
        <time>2018-05-12T11:14:12Z</time>
      </trkpt>
      <trkpt lat="51.2681" lon="3.01779">
        <ele>-4.67</ele>
        <time>2018-05-12T11:14:30Z</time>
      </trkpt>
      <trkpt lat="51.26794" lon="3.0174">
        <ele>-4.67</ele>
        <time>2018-05-12T11:14:54Z</time>
      </trkpt>
      <trkpt lat="51.26779" lon="3.01701">
        <ele>-5.15</ele>
        <time>2018-05-12T11:15:17Z</time>
      </trkpt>
      <trkpt lat="51.2677" lon="3.0165">
        <ele>-5.15</ele>
        <time>2018-05-12T11:15:41Z</time>
      </trkpt>
      <trkpt lat="51.26769" lon="3.01589">
        <ele>-6.59</ele>
        <time>2018-05-12T11:16:09Z</time>
      </trkpt>
      <trkpt lat="51.26757" lon="3.01573">
        <ele>-6.59</ele>
        <time>2018-05-12T11:16:29Z</time>
      </trkpt>
      <trkpt lat="51.26739" lon="3.0155">
        <ele>-5.15</ele>
        <time>2018-05-12T11:16:50Z</time>
      </trkpt>
      <trkpt lat="51.26719" lon="3.01515">
        <ele>-5.63</ele>
        <time>2018-05-12T11:17:12Z</time>
      </trkpt>
      <trkpt lat="51.26699" lon="3.01484">
        <ele>-5.63</ele>
        <time>2018-05-12T11:17:33Z</time>
      </trkpt>
      <trkpt lat="51.26678" lon="3.01443">
        <ele>-5.63</ele>
        <time>2018-05-12T11:17:57Z</time>
      </trkpt>
      <trkpt lat="51.26659" lon="3.01409">
        <ele>-5.63</ele>
        <time>2018-05-12T11:18:20Z</time>
      </trkpt>
      <trkpt lat="51.26652" lon="3.01381">
        <ele>-5.63</ele>
        <time>2018-05-12T11:18:39Z</time>
      </trkpt>
      <trkpt lat="51.26627" lon="3.01351">
        <ele>-5.63</ele>
        <time>2018-05-12T11:19:01Z</time>
      </trkpt>
      <trkpt lat="51.26607" lon="3.0133">
        <ele>-4.67</ele>
        <time>2018-05-12T11:19:21Z</time>
      </trkpt>
      <trkpt lat="51.26598" lon="3.01295">
        <ele>-4.67</ele>
        <time>2018-05-12T11:19:41Z</time>
      </trkpt>
      <trkpt lat="51.26582" lon="3.01258">
        <ele>-3.71</ele>
        <time>2018-05-12T11:20:04Z</time>
      </trkpt>
      <trkpt lat="51.26572" lon="3.01224">
        <ele>-4.19</ele>
        <time>2018-05-12T11:20:27Z</time>
      </trkpt>
      <trkpt lat="51.26571" lon="3.01221">
        <ele>-5.15</ele>
        <time>2018-05-12T11:20:29Z</time>
      </trkpt>
      <trkpt lat="51.26544" lon="3.01183">
        <ele>-5.63</ele>
        <time>2018-05-12T11:20:55Z</time>
      </trkpt>
      <trkpt lat="51.26527" lon="3.01149">
        <ele>-6.11</ele>
        <time>2018-05-12T11:21:16Z</time>
      </trkpt>
      <trkpt lat="51.26509" lon="3.01104">
        <ele>-5.15</ele>
        <time>2018-05-12T11:21:40Z</time>
      </trkpt>
      <trkpt lat="51.26494" lon="3.01063">
        <ele>-4.19</ele>
        <time>2018-05-12T11:22:02Z</time>
      </trkpt>
      <trkpt lat="51.26481" lon="3.01025">
        <ele>-4.19</ele>
        <time>2018-05-12T11:22:22Z</time>
      </trkpt>
      <trkpt lat="51.26469" lon="3.00989">
        <ele>-5.63</ele>
        <time>2018-05-12T11:22:44Z</time>
      </trkpt>
      <trkpt lat="51.26463" lon="3.00943">
        <ele>-5.63</ele>
        <time>2018-05-12T11:23:06Z</time>
      </trkpt>
      <trkpt lat="51.26455" lon="3.00896">
        <ele>-5.63</ele>
        <time>2018-05-12T11:23:29Z</time>
      </trkpt>
      <trkpt lat="51.26434" lon="3.00889">
        <ele>-4.67</ele>
        <time>2018-05-12T11:23:48Z</time>
      </trkpt>
      <trkpt lat="51.26423" lon="3.00886">
        <ele>-4.67</ele>
        <time>2018-05-12T11:24:07Z</time>
      </trkpt>
      <trkpt lat="51.26414" lon="3.00927">
        <ele>-4.19</ele>
        <time>2018-05-12T11:24:28Z</time>
      </trkpt>
      <trkpt lat="51.26413" lon="3.00929">
        <ele>-4.19</ele>
        <time>2018-05-12T11:24:29Z</time>
      </trkpt>
      <trkpt lat="51.26407" lon="3.00955">
        <ele>-4.19</ele>
        <time>2018-05-12T11:24:51Z</time>
      </trkpt>
      <trkpt lat="51.26412" lon="3.00902">
        <ele>-4.19</ele>
        <time>2018-05-12T11:25:13Z</time>
      </trkpt>
      <trkpt lat="51.26412" lon="3.00861">
        <ele>-3.71</ele>
        <time>2018-05-12T11:25:35Z</time>
      </trkpt>
      <trkpt lat="51.26395" lon="3.00835">
        <ele>-5.15</ele>
        <time>2018-05-12T11:25:57Z</time>
      </trkpt>
      <trkpt lat="51.26375" lon="3.00832">
        <ele>-5.15</ele>
        <time>2018-05-12T11:26:16Z</time>
      </trkpt>
      <trkpt lat="51.26366" lon="3.00819">
        <ele>-5.15</ele>
        <time>2018-05-12T11:26:30Z</time>
      </trkpt>
      <trkpt lat="51.26349" lon="3.00786">
        <ele>-5.15</ele>
        <time>2018-05-12T11:26:49Z</time>
      </trkpt>
      <trkpt lat="51.26342" lon="3.00766">
        <ele>-5.15</ele>
        <time>2018-05-12T11:27:02Z</time>
      </trkpt>
      <trkpt lat="51.26336" lon="3.00731">
        <ele>-5.15</ele>
        <time>2018-05-12T11:27:17Z</time>
      </trkpt>
      <trkpt lat="51.26325" lon="3.00688">
        <ele>-5.15</ele>
        <time>2018-05-12T11:27:38Z</time>
      </trkpt>
      <trkpt lat="51.26323" lon="3.00674">
        <ele>-4.19</ele>
        <time>2018-05-12T11:27:45Z</time>
      </trkpt>
      <trkpt lat="51.26313" lon="3.00634">
        <ele>-5.15</ele>
        <time>2018-05-12T11:28:06Z</time>
      </trkpt>
      <trkpt lat="51.263" lon="3.00597">
        <ele>-5.15</ele>
        <time>2018-05-12T11:28:27Z</time>
      </trkpt>
      <trkpt lat="51.26282" lon="3.00562">
        <ele>-5.15</ele>
        <time>2018-05-12T11:28:46Z</time>
      </trkpt>
      <trkpt lat="51.26281" lon="3.00554">
        <ele>-5.15</ele>
        <time>2018-05-12T11:28:49Z</time>
      </trkpt>
      <trkpt lat="51.26277" lon="3.0053">
        <ele>-5.63</ele>
        <time>2018-05-12T11:29:03Z</time>
      </trkpt>
      <trkpt lat="51.26268" lon="3.00499">
        <ele>-6.11</ele>
        <time>2018-05-12T11:29:21Z</time>
      </trkpt>
      <trkpt lat="51.26257" lon="3.0047">
        <ele>-6.59</ele>
        <time>2018-05-12T11:29:37Z</time>
      </trkpt>
      <trkpt lat="51.26253" lon="3.00442">
        <ele>-6.59</ele>
        <time>2018-05-12T11:29:54Z</time>
      </trkpt>
      <trkpt lat="51.26252" lon="3.0043">
        <ele>-5.63</ele>
        <time>2018-05-12T11:29:59Z</time>
      </trkpt>
      <trkpt lat="51.26252" lon="3.00393">
        <ele>-5.63</ele>
        <time>2018-05-12T11:30:16Z</time>
      </trkpt>
      <trkpt lat="51.26245" lon="3.00357">
        <ele>-5.15</ele>
        <time>2018-05-12T11:30:33Z</time>
      </trkpt>
      <trkpt lat="51.26232" lon="3.00333">
        <ele>-5.15</ele>
        <time>2018-05-12T11:30:51Z</time>
      </trkpt>
      <trkpt lat="51.26216" lon="3.00301">
        <ele>-5.15</ele>
        <time>2018-05-12T11:31:08Z</time>
      </trkpt>
      <trkpt lat="51.26206" lon="3.0026">
        <ele>-5.15</ele>
        <time>2018-05-12T11:31:28Z</time>
      </trkpt>
      <trkpt lat="51.26199" lon="3.00231">
        <ele>-5.15</ele>
        <time>2018-05-12T11:31:47Z</time>
      </trkpt>
      <trkpt lat="51.26196" lon="3.00237">
        <ele>-6.59</ele>
        <time>2018-05-12T11:31:52Z</time>
      </trkpt>
      <trkpt lat="51.26192" lon="3.00269">
        <ele>-7.07</ele>
        <time>2018-05-12T11:32:06Z</time>
      </trkpt>
      <trkpt lat="51.26181" lon="3.00318">
        <ele>-7.07</ele>
        <time>2018-05-12T11:32:31Z</time>
      </trkpt>
      <trkpt lat="51.26166" lon="3.00359">
        <ele>-7.55</ele>
        <time>2018-05-12T11:32:53Z</time>
      </trkpt>
      <trkpt lat="51.26148" lon="3.00389">
        <ele>-7.55</ele>
        <time>2018-05-12T11:33:12Z</time>
      </trkpt>
      <trkpt lat="51.26123" lon="3.00418">
        <ele>-7.55</ele>
        <time>2018-05-12T11:33:35Z</time>
      </trkpt>
      <trkpt lat="51.26099" lon="3.00437">
        <ele>-7.55</ele>
        <time>2018-05-12T11:33:56Z</time>
      </trkpt>
      <trkpt lat="51.26078" lon="3.00445">
        <ele>-7.55</ele>
        <time>2018-05-12T11:34:14Z</time>
      </trkpt>
      <trkpt lat="51.26075" lon="3.00446">
        <ele>-7.55</ele>
        <time>2018-05-12T11:34:30Z</time>
      </trkpt>
      <trkpt lat="51.26073" lon="3.00447">
        <ele>-7.07</ele>
        <time>2018-05-12T11:34:45Z</time>
      </trkpt>
      <trkpt lat="51.26073" lon="3.00447">
        <ele>-6.11</ele>
        <time>2018-05-12T11:34:50Z</time>
      </trkpt>
      <trkpt lat="51.26073" lon="3.00447">
        <ele>-6.59</ele>
        <time>2018-05-12T11:35:00Z</time>
      </trkpt>
      <trkpt lat="51.26073" lon="3.00446">
        <ele>-6.59</ele>
        <time>2018-05-12T11:35:34Z</time>
      </trkpt>
      <trkpt lat="51.26074" lon="3.00447">
        <ele>-6.11</ele>
        <time>2018-05-12T11:36:07Z</time>
      </trkpt>
    </trkseg>
  </trk>
</gpx>